sensor_id;sensor_type;location;lat;lon;timestamp;P1;durP1;ratioP1;P2;durP2;ratioP2
55718;SDS011;41623;46.104;19.656;2023-03-18T00:00:30;17.10;;;8.13;;
55718;SDS011;41623;46.104;19.656;2023-03-18T00:02:56;16.55;;;6.80;;
55718;SDS011;41623;46.104;19.656;2023-03-18T00:05:22;15.95;;;6.90;;
55718;SDS011;41623;46.104;19.656;2023-03-18T00:07:48;22.92;;;9.45;;
55718;SDS011;41623;46.104;19.656;2023-03-18T00:10:15;19.08;;;8.90;;
55718;SDS011;41623;46.104;19.656;2023-03-18T00:12:41;21.17;;;8.02;;
55718;SDS011;41623;46.104;19.656;2023-03-18T00:15:08;11.77;;;4.50;;
55718;SDS011;41623;46.104;19.656;2023-03-18T00:17:34;12.75;;;6.22;;
55718;SDS011;41623;46.104;19.656;2023-03-18T00:20:02;28.10;;;8.18;;
55718;SDS011;41623;46.104;19.656;2023-03-18T00:22:31;13.07;;;4.75;;
55718;SDS011;41623;46.104;19.656;2023-03-18T00:24:57;12.43;;;7.63;;
55718;SDS011;41623;46.104;19.656;2023-03-18T00:27:23;16.60;;;6.18;;
55718;SDS011;41623;46.104;19.656;2023-03-18T00:29:49;9.73;;;5.10;;
55718;SDS011;41623;46.104;19.656;2023-03-18T00:32:15;22.77;;;6.82;;
55718;SDS011;41623;46.104;19.656;2023-03-18T00:34:41;14.52;;;6.00;;
55718;SDS011;41623;46.104;19.656;2023-03-18T00:37:07;16.50;;;6.63;;
55718;SDS011;41623;46.104;19.656;2023-03-18T00:39:34;13.98;;;6.10;;
55718;SDS011;41623;46.104;19.656;2023-03-18T00:42:00;16.08;;;5.80;;
55718;SDS011;41623;46.104;19.656;2023-03-18T00:47:00;5.13;;;3.53;;
55718;SDS011;41623;46.104;19.656;2023-03-18T00:49:27;5.95;;;3.58;;
55718;SDS011;41623;46.104;19.656;2023-03-18T00:51:53;11.95;;;5.45;;
55718;SDS011;41623;46.104;19.656;2023-03-18T00:54:19;9.18;;;4.38;;
55718;SDS011;41623;46.104;19.656;2023-03-18T00:56:46;10.55;;;5.28;;
55718;SDS011;41623;46.104;19.656;2023-03-18T00:59:12;9.10;;;5.43;;
55718;SDS011;41623;46.104;19.656;2023-03-18T01:01:38;10.32;;;4.40;;
55718;SDS011;41623;46.104;19.656;2023-03-18T01:04:05;10.40;;;5.30;;
55718;SDS011;41623;46.104;19.656;2023-03-18T01:06:32;11.25;;;5.45;;
55718;SDS011;41623;46.104;19.656;2023-03-18T01:08:59;8.55;;;4.53;;
55718;SDS011;41623;46.104;19.656;2023-03-18T01:11:25;8.57;;;5.00;;
55718;SDS011;41623;46.104;19.656;2023-03-18T01:13:52;11.60;;;4.95;;
55718;SDS011;41623;46.104;19.656;2023-03-18T01:16:19;10.18;;;4.72;;
55718;SDS011;41623;46.104;19.656;2023-03-18T01:18:45;7.97;;;4.47;;
55718;SDS011;41623;46.104;19.656;2023-03-18T01:21:11;10.90;;;4.88;;
55718;SDS011;41623;46.104;19.656;2023-03-18T01:23:38;12.65;;;5.03;;
55718;SDS011;41623;46.104;19.656;2023-03-18T01:26:04;19.08;;;5.47;;
55718;SDS011;41623;46.104;19.656;2023-03-18T01:28:30;16.60;;;4.88;;
55718;SDS011;41623;46.104;19.656;2023-03-18T01:30:57;7.88;;;3.83;;
55718;SDS011;41623;46.104;19.656;2023-03-18T01:33:24;9.57;;;4.32;;
55718;SDS011;41623;46.104;19.656;2023-03-18T01:35:52;11.27;;;5.60;;
55718;SDS011;41623;46.104;19.656;2023-03-18T01:38:19;7.10;;;4.38;;
55718;SDS011;41623;46.104;19.656;2023-03-18T01:40:45;10.18;;;4.55;;
55718;SDS011;41623;46.104;19.656;2023-03-18T01:45:43;11.32;;;3.65;;
55718;SDS011;41623;46.104;19.656;2023-03-18T01:48:13;11.13;;;4.63;;
55718;SDS011;41623;46.104;19.656;2023-03-18T01:50:39;7.07;;;2.95;;
55718;SDS011;41623;46.104;19.656;2023-03-18T01:53:07;9.98;;;3.33;;
55718;SDS011;41623;46.104;19.656;2023-03-18T01:55:34;6.80;;;3.53;;
55718;SDS011;41623;46.104;19.656;2023-03-18T01:58:02;6.70;;;3.92;;
55718;SDS011;41623;46.104;19.656;2023-03-18T02:00:28;7.53;;;3.58;;
55718;SDS011;41623;46.104;19.656;2023-03-18T02:02:54;9.45;;;4.88;;
55718;SDS011;41623;46.104;19.656;2023-03-18T02:05:22;9.65;;;4.03;;
55718;SDS011;41623;46.104;19.656;2023-03-18T02:07:50;7.05;;;3.58;;
55718;SDS011;41623;46.104;19.656;2023-03-18T02:10:20;7.28;;;3.67;;
55718;SDS011;41623;46.104;19.656;2023-03-18T02:12:49;13.23;;;4.90;;
55718;SDS011;41623;46.104;19.656;2023-03-18T02:15:17;7.78;;;3.80;;
55718;SDS011;41623;46.104;19.656;2023-03-18T02:17:48;10.23;;;4.60;;
55718;SDS011;41623;46.104;19.656;2023-03-18T02:22:48;10.07;;;4.25;;
55718;SDS011;41623;46.104;19.656;2023-03-18T02:28:00;14.52;;;4.88;;
55718;SDS011;41623;46.104;19.656;2023-03-18T02:30:30;7.82;;;4.03;;
55718;SDS011;41623;46.104;19.656;2023-03-18T02:32:57;6.03;;;3.70;;
55718;SDS011;41623;46.104;19.656;2023-03-18T02:35:24;10.23;;;3.42;;
55718;SDS011;41623;46.104;19.656;2023-03-18T02:37:51;8.05;;;3.33;;
55718;SDS011;41623;46.104;19.656;2023-03-18T02:40:19;4.90;;;3.50;;
55718;SDS011;41623;46.104;19.656;2023-03-18T02:42:46;7.97;;;4.18;;
55718;SDS011;41623;46.104;19.656;2023-03-18T02:45:18;10.48;;;4.65;;
55718;SDS011;41623;46.104;19.656;2023-03-18T02:47:48;12.05;;;5.45;;
55718;SDS011;41623;46.104;19.656;2023-03-18T02:50:15;9.35;;;4.20;;
55718;SDS011;41623;46.104;19.656;2023-03-18T02:52:41;7.88;;;5.35;;
55718;SDS011;41623;46.104;19.656;2023-03-18T02:55:07;7.35;;;4.18;;
55718;SDS011;41623;46.104;19.656;2023-03-18T02:57:33;7.90;;;4.47;;
55718;SDS011;41623;46.104;19.656;2023-03-18T02:59:59;9.90;;;3.67;;
55718;SDS011;41623;46.104;19.656;2023-03-18T03:02:26;10.10;;;3.92;;
55718;SDS011;41623;46.104;19.656;2023-03-18T03:04:52;5.45;;;4.25;;
55718;SDS011;41623;46.104;19.656;2023-03-18T03:07:18;6.43;;;3.50;;
55718;SDS011;41623;46.104;19.656;2023-03-18T03:09:44;9.65;;;4.10;;
55718;SDS011;41623;46.104;19.656;2023-03-18T03:12:10;6.75;;;4.03;;
55718;SDS011;41623;46.104;19.656;2023-03-18T03:14:36;4.57;;;3.47;;
55718;SDS011;41623;46.104;19.656;2023-03-18T03:17:02;5.13;;;3.40;;
55718;SDS011;41623;46.104;19.656;2023-03-18T03:19:28;4.90;;;3.22;;
55718;SDS011;41623;46.104;19.656;2023-03-18T03:21:54;10.15;;;4.15;;
55718;SDS011;41623;46.104;19.656;2023-03-18T03:24:21;8.20;;;3.55;;
55718;SDS011;41623;46.104;19.656;2023-03-18T03:26:47;9.40;;;3.72;;
55718;SDS011;41623;46.104;19.656;2023-03-18T03:29:13;6.85;;;3.67;;
55718;SDS011;41623;46.104;19.656;2023-03-18T03:31:39;5.82;;;3.33;;
55718;SDS011;41623;46.104;19.656;2023-03-18T03:34:05;9.85;;;3.22;;
55718;SDS011;41623;46.104;19.656;2023-03-18T03:36:31;8.48;;;3.80;;
55718;SDS011;41623;46.104;19.656;2023-03-18T03:38:58;7.63;;;3.58;;
55718;SDS011;41623;46.104;19.656;2023-03-18T03:41:24;2.38;;;2.17;;
55718;SDS011;41623;46.104;19.656;2023-03-18T03:43:50;7.80;;;3.53;;
55718;SDS011;41623;46.104;19.656;2023-03-18T03:46:16;5.63;;;3.10;;
55718;SDS011;41623;46.104;19.656;2023-03-18T03:48:42;7.10;;;3.03;;
55718;SDS011;41623;46.104;19.656;2023-03-18T03:51:08;4.75;;;2.65;;
55718;SDS011;41623;46.104;19.656;2023-03-18T03:53:35;3.42;;;2.35;;
55718;SDS011;41623;46.104;19.656;2023-03-18T03:56:01;4.47;;;2.97;;
55718;SDS011;41623;46.104;19.656;2023-03-18T03:58:28;6.97;;;3.83;;
55718;SDS011;41623;46.104;19.656;2023-03-18T04:00:54;6.53;;;3.75;;
55718;SDS011;41623;46.104;19.656;2023-03-18T04:03:20;7.85;;;4.13;;
55718;SDS011;41623;46.104;19.656;2023-03-18T04:05:46;5.47;;;3.10;;
55718;SDS011;41623;46.104;19.656;2023-03-18T04:08:13;8.65;;;4.30;;
55718;SDS011;41623;46.104;19.656;2023-03-18T04:10:39;7.00;;;4.35;;
55718;SDS011;41623;46.104;19.656;2023-03-18T04:13:05;7.60;;;4.25;;
55718;SDS011;41623;46.104;19.656;2023-03-18T04:15:32;9.07;;;4.30;;
55718;SDS011;41623;46.104;19.656;2023-03-18T04:17:58;7.18;;;4.32;;
55718;SDS011;41623;46.104;19.656;2023-03-18T04:20:30;11.25;;;5.07;;
55718;SDS011;41623;46.104;19.656;2023-03-18T04:22:58;12.23;;;5.45;;
55718;SDS011;41623;46.104;19.656;2023-03-18T04:25:24;13.52;;;5.15;;
55718;SDS011;41623;46.104;19.656;2023-03-18T04:27:50;15.88;;;6.40;;
55718;SDS011;41623;46.104;19.656;2023-03-18T04:30:19;6.93;;;3.55;;
55718;SDS011;41623;46.104;19.656;2023-03-18T04:32:47;10.82;;;6.10;;
55718;SDS011;41623;46.104;19.656;2023-03-18T04:35:14;8.25;;;3.90;;
55718;SDS011;41623;46.104;19.656;2023-03-18T04:37:41;10.85;;;5.28;;
55718;SDS011;41623;46.104;19.656;2023-03-18T04:40:08;9.88;;;5.35;;
55718;SDS011;41623;46.104;19.656;2023-03-18T04:42:36;7.93;;;4.30;;
55718;SDS011;41623;46.104;19.656;2023-03-18T04:45:02;13.93;;;5.22;;
55718;SDS011;41623;46.104;19.656;2023-03-18T04:47:29;12.30;;;4.18;;
55718;SDS011;41623;46.104;19.656;2023-03-18T04:49:57;6.78;;;3.60;;
55718;SDS011;41623;46.104;19.656;2023-03-18T04:52:23;9.50;;;4.80;;
55718;SDS011;41623;46.104;19.656;2023-03-18T04:54:49;11.38;;;5.40;;
55718;SDS011;41623;46.104;19.656;2023-03-18T04:57:15;13.75;;;5.68;;
55718;SDS011;41623;46.104;19.656;2023-03-18T04:59:42;11.48;;;5.35;;
55718;SDS011;41623;46.104;19.656;2023-03-18T05:02:08;14.80;;;4.82;;
55718;SDS011;41623;46.104;19.656;2023-03-18T05:04:35;10.35;;;4.30;;
55718;SDS011;41623;46.104;19.656;2023-03-18T05:07:01;10.70;;;4.85;;
55718;SDS011;41623;46.104;19.656;2023-03-18T05:09:27;10.55;;;5.53;;
55718;SDS011;41623;46.104;19.656;2023-03-18T05:11:53;12.00;;;4.97;;
55718;SDS011;41623;46.104;19.656;2023-03-18T05:14:19;9.68;;;4.40;;
55718;SDS011;41623;46.104;19.656;2023-03-18T05:16:45;9.30;;;4.13;;
55718;SDS011;41623;46.104;19.656;2023-03-18T05:19:11;13.15;;;4.95;;
55718;SDS011;41623;46.104;19.656;2023-03-18T05:21:38;11.65;;;4.75;;
55718;SDS011;41623;46.104;19.656;2023-03-18T05:24:05;9.88;;;4.68;;
55718;SDS011;41623;46.104;19.656;2023-03-18T05:26:31;10.35;;;4.80;;
55718;SDS011;41623;46.104;19.656;2023-03-18T05:28:57;8.18;;;4.38;;
55718;SDS011;41623;46.104;19.656;2023-03-18T05:31:23;13.48;;;4.88;;
55718;SDS011;41623;46.104;19.656;2023-03-18T05:33:49;12.52;;;5.13;;
55718;SDS011;41623;46.104;19.656;2023-03-18T05:36:15;14.25;;;5.75;;
55718;SDS011;41623;46.104;19.656;2023-03-18T05:38:42;16.00;;;5.75;;
55718;SDS011;41623;46.104;19.656;2023-03-18T05:41:08;10.25;;;5.13;;
55718;SDS011;41623;46.104;19.656;2023-03-18T05:43:34;9.50;;;4.95;;
55718;SDS011;41623;46.104;19.656;2023-03-18T05:46:00;12.27;;;5.45;;
55718;SDS011;41623;46.104;19.656;2023-03-18T05:48:28;14.70;;;7.00;;
55718;SDS011;41623;46.104;19.656;2023-03-18T05:50:54;9.07;;;4.90;;
55718;SDS011;41623;46.104;19.656;2023-03-18T05:53:20;11.95;;;4.47;;
55718;SDS011;41623;46.104;19.656;2023-03-18T05:55:46;9.60;;;4.75;;
55718;SDS011;41623;46.104;19.656;2023-03-18T05:58:12;20.10;;;5.95;;
55718;SDS011;41623;46.104;19.656;2023-03-18T06:00:38;7.80;;;4.82;;
55718;SDS011;41623;46.104;19.656;2023-03-18T06:03:05;12.35;;;4.35;;
55718;SDS011;41623;46.104;19.656;2023-03-18T06:05:31;9.50;;;5.28;;
55718;SDS011;41623;46.104;19.656;2023-03-18T06:07:57;11.10;;;5.53;;
55718;SDS011;41623;46.104;19.656;2023-03-18T06:10:24;12.00;;;5.18;;
55718;SDS011;41623;46.104;19.656;2023-03-18T06:12:51;10.43;;;5.45;;
55718;SDS011;41623;46.104;19.656;2023-03-18T06:15:19;8.27;;;5.18;;
55718;SDS011;41623;46.104;19.656;2023-03-18T06:17:45;9.15;;;4.80;;
55718;SDS011;41623;46.104;19.656;2023-03-18T06:20:12;8.30;;;4.82;;
55718;SDS011;41623;46.104;19.656;2023-03-18T06:22:38;10.75;;;4.32;;
55718;SDS011;41623;46.104;19.656;2023-03-18T06:25:05;5.35;;;4.13;;
55718;SDS011;41623;46.104;19.656;2023-03-18T06:27:32;10.40;;;4.68;;
55718;SDS011;41623;46.104;19.656;2023-03-18T06:29:59;6.72;;;3.28;;
55718;SDS011;41623;46.104;19.656;2023-03-18T06:32:28;10.05;;;3.78;;
55718;SDS011;41623;46.104;19.656;2023-03-18T06:34:54;4.88;;;2.95;;
55718;SDS011;41623;46.104;19.656;2023-03-18T06:37:21;8.50;;;4.43;;
55718;SDS011;41623;46.104;19.656;2023-03-18T06:39:47;5.03;;;2.17;;
55718;SDS011;41623;46.104;19.656;2023-03-18T06:42:13;11.98;;;3.40;;
55718;SDS011;41623;46.104;19.656;2023-03-18T06:44:39;10.85;;;4.82;;
55718;SDS011;41623;46.104;19.656;2023-03-18T06:47:08;5.45;;;2.65;;
55718;SDS011;41623;46.104;19.656;2023-03-18T06:49:34;3.10;;;2.80;;
55718;SDS011;41623;46.104;19.656;2023-03-18T06:52:00;3.38;;;2.15;;
55718;SDS011;41623;46.104;19.656;2023-03-18T06:54:27;2.33;;;2.08;;
55718;SDS011;41623;46.104;19.656;2023-03-18T06:56:53;5.35;;;2.75;;
55718;SDS011;41623;46.104;19.656;2023-03-18T06:59:19;3.78;;;2.22;;
55718;SDS011;41623;46.104;19.656;2023-03-18T07:01:47;2.30;;;2.10;;
55718;SDS011;41623;46.104;19.656;2023-03-18T07:04:13;3.00;;;1.50;;
55718;SDS011;41623;46.104;19.656;2023-03-18T07:06:39;6.85;;;2.20;;
55718;SDS011;41623;46.104;19.656;2023-03-18T07:09:05;1.92;;;1.60;;
55718;SDS011;41623;46.104;19.656;2023-03-18T07:11:35;2.03;;;1.73;;
55718;SDS011;41623;46.104;19.656;2023-03-18T07:14:01;2.78;;;1.90;;
55718;SDS011;41623;46.104;19.656;2023-03-18T07:16:27;3.85;;;1.92;;
55718;SDS011;41623;46.104;19.656;2023-03-18T07:18:54;5.18;;;2.30;;
55718;SDS011;41623;46.104;19.656;2023-03-18T07:21:23;5.05;;;1.88;;
55718;SDS011;41623;46.104;19.656;2023-03-18T07:23:49;2.20;;;1.77;;
55718;SDS011;41623;46.104;19.656;2023-03-18T07:26:16;3.78;;;2.40;;
55718;SDS011;41623;46.104;19.656;2023-03-18T07:28:42;5.70;;;2.60;;
55718;SDS011;41623;46.104;19.656;2023-03-18T07:31:08;5.28;;;2.63;;
55718;SDS011;41623;46.104;19.656;2023-03-18T07:33:34;4.05;;;2.10;;
55718;SDS011;41623;46.104;19.656;2023-03-18T07:36:00;2.58;;;1.73;;
55718;SDS011;41623;46.104;19.656;2023-03-18T07:38:27;5.90;;;2.70;;
55718;SDS011;41623;46.104;19.656;2023-03-18T07:40:53;2.60;;;2.22;;
55718;SDS011;41623;46.104;19.656;2023-03-18T07:43:20;2.72;;;1.23;;
55718;SDS011;41623;46.104;19.656;2023-03-18T07:45:46;3.47;;;1.80;;
55718;SDS011;41623;46.104;19.656;2023-03-18T07:48:12;6.00;;;4.00;;
55718;SDS011;41623;46.104;19.656;2023-03-18T07:50:38;8.43;;;3.17;;
55718;SDS011;41623;46.104;19.656;2023-03-18T07:53:05;5.90;;;3.80;;
55718;SDS011;41623;46.104;19.656;2023-03-18T07:55:31;3.88;;;2.05;;
55718;SDS011;41623;46.104;19.656;2023-03-18T07:57:57;1.58;;;1.33;;
55718;SDS011;41623;46.104;19.656;2023-03-18T08:00:24;2.28;;;1.42;;
55718;SDS011;41623;46.104;19.656;2023-03-18T08:02:50;1.58;;;1.35;;
55718;SDS011;41623;46.104;19.656;2023-03-18T08:05:16;6.93;;;3.00;;
55718;SDS011;41623;46.104;19.656;2023-03-18T08:07:43;4.85;;;2.65;;
55718;SDS011;41623;46.104;19.656;2023-03-18T08:10:09;1.58;;;1.38;;
55718;SDS011;41623;46.104;19.656;2023-03-18T08:12:36;2.85;;;1.75;;
55718;SDS011;41623;46.104;19.656;2023-03-18T08:15:03;5.00;;;3.25;;
55718;SDS011;41623;46.104;19.656;2023-03-18T08:17:29;2.80;;;1.70;;
55718;SDS011;41623;46.104;19.656;2023-03-18T08:19:55;4.72;;;2.58;;
55718;SDS011;41623;46.104;19.656;2023-03-18T08:22:22;1.45;;;1.35;;
55718;SDS011;41623;46.104;19.656;2023-03-18T08:24:49;2.40;;;1.90;;
55718;SDS011;41623;46.104;19.656;2023-03-18T08:27:16;1.60;;;1.50;;
55718;SDS011;41623;46.104;19.656;2023-03-18T08:29:42;4.78;;;2.47;;
55718;SDS011;41623;46.104;19.656;2023-03-18T08:32:08;1.83;;;1.63;;
55718;SDS011;41623;46.104;19.656;2023-03-18T08:34:35;3.17;;;1.80;;
55718;SDS011;41623;46.104;19.656;2023-03-18T08:37:01;3.50;;;1.83;;
55718;SDS011;41623;46.104;19.656;2023-03-18T08:39:29;5.53;;;2.33;;
55718;SDS011;41623;46.104;19.656;2023-03-18T08:41:56;2.63;;;1.70;;
55718;SDS011;41623;46.104;19.656;2023-03-18T08:44:23;4.53;;;1.83;;
55718;SDS011;41623;46.104;19.656;2023-03-18T08:46:50;1.33;;;1.02;;
55718;SDS011;41623;46.104;19.656;2023-03-18T08:49:16;2.50;;;2.15;;
55718;SDS011;41623;46.104;19.656;2023-03-18T08:51:42;2.17;;;1.85;;
55718;SDS011;41623;46.104;19.656;2023-03-18T08:54:08;2.22;;;1.98;;
55718;SDS011;41623;46.104;19.656;2023-03-18T08:56:34;1.77;;;1.40;;
55718;SDS011;41623;46.104;19.656;2023-03-18T08:59:02;1.98;;;1.65;;
55718;SDS011;41623;46.104;19.656;2023-03-18T09:01:28;6.53;;;2.38;;
55718;SDS011;41623;46.104;19.656;2023-03-18T09:03:54;1.27;;;1.17;;
55718;SDS011;41623;46.104;19.656;2023-03-18T09:06:22;1.30;;;1.20;;
55718;SDS011;41623;46.104;19.656;2023-03-18T09:08:48;1.35;;;1.25;;
55718;SDS011;41623;46.104;19.656;2023-03-18T09:11:14;2.72;;;1.88;;
55718;SDS011;41623;46.104;19.656;2023-03-18T09:13:41;1.33;;;1.23;;
55718;SDS011;41623;46.104;19.656;2023-03-18T09:16:07;3.22;;;2.22;;
55718;SDS011;41623;46.104;19.656;2023-03-18T09:18:34;1.52;;;1.35;;
55718;SDS011;41623;46.104;19.656;2023-03-18T09:21:01;1.60;;;1.50;;
55718;SDS011;41623;46.104;19.656;2023-03-18T09:23:27;1.40;;;1.30;;
55718;SDS011;41623;46.104;19.656;2023-03-18T09:25:53;1.60;;;1.40;;
55718;SDS011;41623;46.104;19.656;2023-03-18T09:28:21;2.38;;;1.67;;
55718;SDS011;41623;46.104;19.656;2023-03-18T09:30:47;1.30;;;1.17;;
55718;SDS011;41623;46.104;19.656;2023-03-18T09:33:14;2.25;;;1.50;;
55718;SDS011;41623;46.104;19.656;2023-03-18T09:35:40;1.85;;;1.75;;
55718;SDS011;41623;46.104;19.656;2023-03-18T09:38:06;2.70;;;1.48;;
55718;SDS011;41623;46.104;19.656;2023-03-18T09:40:35;1.80;;;1.13;;
55718;SDS011;41623;46.104;19.656;2023-03-18T09:56:35;2.97;;;1.67;;
55718;SDS011;41623;46.104;19.656;2023-03-18T10:01:29;1.40;;;1.30;;
55718;SDS011;41623;46.104;19.656;2023-03-18T10:03:59;0.70;;;0.70;;
55718;SDS011;41623;46.104;19.656;2023-03-18T10:06:27;1.88;;;1.33;;
55718;SDS011;41623;46.104;19.656;2023-03-18T10:16:22;1.85;;;1.67;;
55718;SDS011;41623;46.104;19.656;2023-03-18T10:18:51;3.30;;;2.05;;
55718;SDS011;41623;46.104;19.656;2023-03-18T10:23:48;2.08;;;1.77;;
55718;SDS011;41623;46.104;19.656;2023-03-18T10:26:21;1.55;;;1.30;;
55718;SDS011;41623;46.104;19.656;2023-03-18T10:34:07;2.83;;;2.33;;
55718;SDS011;41623;46.104;19.656;2023-03-18T10:39:12;3.17;;;2.17;;
55718;SDS011;41623;46.104;19.656;2023-03-18T10:41:40;1.92;;;1.67;;
55718;SDS011;41623;46.104;19.656;2023-03-18T10:44:19;3.92;;;2.35;;
55718;SDS011;41623;46.104;19.656;2023-03-18T10:46:46;1.30;;;1.23;;
55718;SDS011;41623;46.104;19.656;2023-03-18T10:49:17;3.03;;;2.35;;
55718;SDS011;41623;46.104;19.656;2023-03-18T10:51:49;1.42;;;1.33;;
55718;SDS011;41623;46.104;19.656;2023-03-18T10:57:20;2.15;;;1.58;;
55718;SDS011;41623;46.104;19.656;2023-03-18T10:59:47;1.65;;;1.30;;
55718;SDS011;41623;46.104;19.656;2023-03-18T11:02:18;2.05;;;1.77;;
55718;SDS011;41623;46.104;19.656;2023-03-18T11:04:49;2.22;;;1.63;;
55718;SDS011;41623;46.104;19.656;2023-03-18T11:07:22;3.33;;;1.70;;
55718;SDS011;41623;46.104;19.656;2023-03-18T11:09:50;1.77;;;1.48;;
55718;SDS011;41623;46.104;19.656;2023-03-18T11:12:17;2.15;;;1.63;;
55718;SDS011;41623;46.104;19.656;2023-03-18T11:14:47;1.50;;;1.40;;
55718;SDS011;41623;46.104;19.656;2023-03-18T11:17:31;3.28;;;1.98;;
55718;SDS011;41623;46.104;19.656;2023-03-18T11:22:25;2.47;;;1.92;;
55718;SDS011;41623;46.104;19.656;2023-03-18T11:32:39;3.75;;;2.33;;
55718;SDS011;41623;46.104;19.656;2023-03-18T11:35:17;2.08;;;1.23;;
55718;SDS011;41623;46.104;19.656;2023-03-18T11:37:45;1.80;;;1.55;;
55718;SDS011;41623;46.104;19.656;2023-03-18T11:40:26;2.00;;;1.50;;
55718;SDS011;41623;46.104;19.656;2023-03-18T11:42:57;2.45;;;1.77;;
55718;SDS011;41623;46.104;19.656;2023-03-18T11:48:30;1.30;;;1.20;;
55718;SDS011;41623;46.104;19.656;2023-03-18T11:51:05;2.70;;;1.85;;
55718;SDS011;41623;46.104;19.656;2023-03-18T11:53:38;1.40;;;1.30;;
55718;SDS011;41623;46.104;19.656;2023-03-18T12:09:16;2.33;;;2.00;;
55718;SDS011;41623;46.104;19.656;2023-03-18T12:14:26;1.50;;;1.40;;
55718;SDS011;41623;46.104;19.656;2023-03-18T12:19:30;1.63;;;1.35;;
55718;SDS011;41623;46.104;19.656;2023-03-18T12:27:18;2.60;;;1.73;;
55718;SDS011;41623;46.104;19.656;2023-03-18T12:32:28;2.60;;;1.77;;
55718;SDS011;41623;46.104;19.656;2023-03-18T12:45:46;0.82;;;0.82;;
55718;SDS011;41623;46.104;19.656;2023-03-18T12:48:15;1.77;;;1.60;;
55718;SDS011;41623;46.104;19.656;2023-03-18T12:50:48;1.23;;;0.98;;
55718;SDS011;41623;46.104;19.656;2023-03-18T12:53:24;1.10;;;1.10;;
55718;SDS011;41623;46.104;19.656;2023-03-18T12:55:53;1.00;;;1.00;;
55718;SDS011;41623;46.104;19.656;2023-03-18T12:58:23;0.88;;;0.88;;
55718;SDS011;41623;46.104;19.656;2023-03-18T13:03:42;3.35;;;1.67;;
55718;SDS011;41623;46.104;19.656;2023-03-18T13:13:49;2.35;;;1.67;;
55718;SDS011;41623;46.104;19.656;2023-03-18T13:16:16;1.33;;;1.23;;
55718;SDS011;41623;46.104;19.656;2023-03-18T13:18:45;1.40;;;1.30;;
55718;SDS011;41623;46.104;19.656;2023-03-18T13:21:15;7.40;;;1.30;;
55718;SDS011;41623;46.104;19.656;2023-03-18T13:29:07;1.67;;;1.58;;
55718;SDS011;41623;46.104;19.656;2023-03-18T13:34:28;1.40;;;1.33;;
55718;SDS011;41623;46.104;19.656;2023-03-18T13:44:39;1.00;;;0.90;;
55718;SDS011;41623;46.104;19.656;2023-03-18T13:47:09;1.55;;;1.45;;
55718;SDS011;41623;46.104;19.656;2023-03-18T13:49:39;1.73;;;1.42;;
55718;SDS011;41623;46.104;19.656;2023-03-18T13:52:20;0.98;;;0.98;;
55718;SDS011;41623;46.104;19.656;2023-03-18T13:54:46;1.40;;;1.30;;
55718;SDS011;41623;46.104;19.656;2023-03-18T14:02:59;1.08;;;1.08;;
55718;SDS011;41623;46.104;19.656;2023-03-18T14:07:57;1.25;;;0.85;;
55718;SDS011;41623;46.104;19.656;2023-03-18T14:10:24;1.05;;;0.95;;
55718;SDS011;41623;46.104;19.656;2023-03-18T14:12:50;0.85;;;0.85;;
55718;SDS011;41623;46.104;19.656;2023-03-18T14:17:52;1.83;;;1.73;;
55718;SDS011;41623;46.104;19.656;2023-03-18T14:20:22;2.78;;;2.05;;
55718;SDS011;41623;46.104;19.656;2023-03-18T14:22:52;16.95;;;4.40;;
55718;SDS011;41623;46.104;19.656;2023-03-18T14:25:24;1.95;;;1.67;;
55718;SDS011;41623;46.104;19.656;2023-03-18T14:28:17;1.23;;;0.93;;
55718;SDS011;41623;46.104;19.656;2023-03-18T14:30:46;2.70;;;1.70;;
55718;SDS011;41623;46.104;19.656;2023-03-18T14:35:59;1.50;;;1.40;;
55718;SDS011;41623;46.104;19.656;2023-03-18T14:40:55;1.20;;;1.20;;
55718;SDS011;41623;46.104;19.656;2023-03-18T14:43:24;1.27;;;1.20;;
55718;SDS011;41623;46.104;19.656;2023-03-18T14:45:50;2.30;;;1.33;;
55718;SDS011;41623;46.104;19.656;2023-03-18T14:48:28;1.17;;;1.08;;
55718;SDS011;41623;46.104;19.656;2023-03-18T14:51:10;1.30;;;1.17;;
55718;SDS011;41623;46.104;19.656;2023-03-18T14:53:39;1.42;;;1.33;;
55718;SDS011;41623;46.104;19.656;2023-03-18T14:56:23;1.77;;;1.27;;
55718;SDS011;41623;46.104;19.656;2023-03-18T14:58:52;1.27;;;1.13;;
55718;SDS011;41623;46.104;19.656;2023-03-18T15:01:23;1.25;;;0.95;;
55718;SDS011;41623;46.104;19.656;2023-03-18T15:03:51;1.20;;;1.10;;
55718;SDS011;41623;46.104;19.656;2023-03-18T15:06:21;2.08;;;1.25;;
55718;SDS011;41623;46.104;19.656;2023-03-18T15:08:57;1.40;;;1.20;;
55718;SDS011;41623;46.104;19.656;2023-03-18T15:11:23;1.05;;;1.00;;
55718;SDS011;41623;46.104;19.656;2023-03-18T15:13:52;1.27;;;1.05;;
55718;SDS011;41623;46.104;19.656;2023-03-18T15:16:21;2.33;;;1.60;;
55718;SDS011;41623;46.104;19.656;2023-03-18T15:18:50;1.40;;;1.05;;
55718;SDS011;41623;46.104;19.656;2023-03-18T15:21:23;1.17;;;1.10;;
55718;SDS011;41623;46.104;19.656;2023-03-18T15:23:51;2.85;;;1.40;;
55718;SDS011;41623;46.104;19.656;2023-03-18T15:26:22;1.77;;;1.20;;
55718;SDS011;41623;46.104;19.656;2023-03-18T15:28:52;0.90;;;0.90;;
55718;SDS011;41623;46.104;19.656;2023-03-18T15:31:23;0.95;;;0.95;;
55718;SDS011;41623;46.104;19.656;2023-03-18T15:33:54;0.90;;;0.90;;
55718;SDS011;41623;46.104;19.656;2023-03-18T15:36:20;0.98;;;0.98;;
55718;SDS011;41623;46.104;19.656;2023-03-18T15:38:47;4.97;;;1.30;;
55718;SDS011;41623;46.104;19.656;2023-03-18T15:41:13;0.80;;;0.80;;
55718;SDS011;41623;46.104;19.656;2023-03-18T15:43:42;1.15;;;1.00;;
55718;SDS011;41623;46.104;19.656;2023-03-18T15:46:14;3.30;;;1.67;;
55718;SDS011;41623;46.104;19.656;2023-03-18T15:48:44;1.27;;;1.20;;
55718;SDS011;41623;46.104;19.656;2023-03-18T15:51:22;1.02;;;1.02;;
55718;SDS011;41623;46.104;19.656;2023-03-18T15:54:05;0.85;;;0.85;;
55718;SDS011;41623;46.104;19.656;2023-03-18T15:56:42;1.00;;;0.95;;
55718;SDS011;41623;46.104;19.656;2023-03-18T15:59:13;0.98;;;0.98;;
55718;SDS011;41623;46.104;19.656;2023-03-18T16:01:39;2.10;;;1.30;;
55718;SDS011;41623;46.104;19.656;2023-03-18T16:04:07;1.75;;;1.08;;
55718;SDS011;41623;46.104;19.656;2023-03-18T16:06:34;1.27;;;1.17;;
55718;SDS011;41623;46.104;19.656;2023-03-18T16:09:11;1.17;;;0.98;;
55718;SDS011;41623;46.104;19.656;2023-03-18T16:11:38;3.63;;;1.33;;
55718;SDS011;41623;46.104;19.656;2023-03-18T16:14:04;1.55;;;0.90;;
55718;SDS011;41623;46.104;19.656;2023-03-18T16:16:30;1.88;;;1.58;;
55718;SDS011;41623;46.104;19.656;2023-03-18T16:18:57;1.27;;;1.17;;
55718;SDS011;41623;46.104;19.656;2023-03-18T16:21:23;1.88;;;1.30;;
55718;SDS011;41623;46.104;19.656;2023-03-18T16:23:49;2.40;;;0.90;;
55718;SDS011;41623;46.104;19.656;2023-03-18T16:26:16;0.90;;;0.90;;
55718;SDS011;41623;46.104;19.656;2023-03-18T16:28:43;1.67;;;1.02;;
55718;SDS011;41623;46.104;19.656;2023-03-18T16:31:09;1.95;;;1.23;;
55718;SDS011;41623;46.104;19.656;2023-03-18T16:33:36;2.15;;;1.33;;
55718;SDS011;41623;46.104;19.656;2023-03-18T16:36:02;1.48;;;1.38;;
55718;SDS011;41623;46.104;19.656;2023-03-18T16:38:30;1.10;;;1.10;;
55718;SDS011;41623;46.104;19.656;2023-03-18T16:40:58;1.05;;;0.98;;
55718;SDS011;41623;46.104;19.656;2023-03-18T16:43:28;2.83;;;1.38;;
55718;SDS011;41623;46.104;19.656;2023-03-18T16:45:59;1.40;;;1.30;;
55718;SDS011;41623;46.104;19.656;2023-03-18T16:48:27;1.13;;;1.05;;
55718;SDS011;41623;46.104;19.656;2023-03-18T16:50:53;1.23;;;1.02;;
55718;SDS011;41623;46.104;19.656;2023-03-18T16:53:27;1.08;;;0.98;;